DLH1PM EDDF-EDDS
Flight info
| Callsign | DLH1PM |
|---|---|
| Flight time | 0h 32m |
| Altitude | 17000 |
| Route | ANEKI2L/18 ANEKI Y163 NEKLO Y171 INKAM N850 KRH T128 BADSO BADSO2A |
| Aircraft | A20N/M-SDE2E3FGIJ1LORWXYZ/HB1 |
Departure
| Time | 2026-05-05 09:09 |
|---|---|
| Airport | Frankfurt Main Airport (EDDF) |
Arrival
| Time | 2026-05-05 09:42 |
|---|---|
| Airport | Stuttgart Airport (EDDS) |
| Time | Latitude | Longitude | Altitude | Speed | Heading |
|---|---|---|---|---|---|
| 2026-05-05 08:18 | 50.04638 | 8.56660 | 356 ft | 0 kts | 115° |
| 2026-05-05 08:51 | 50.04644 | 8.56641 | 358 ft | 4 kts | 121° |
| 2026-05-05 08:52 | 50.04649 | 8.56630 | 356 ft | 2 kts | 117° |
| 2026-05-05 08:52 | 50.04638 | 8.56660 | 356 ft | 0 kts | 115° |
| 2026-05-05 08:55 | 50.04641 | 8.56652 | 357 ft | 4 kts | 114° |
| 2026-05-05 08:55 | 50.04652 | 8.56613 | 359 ft | 4 kts | 114° |
| 2026-05-05 08:55 | 50.04663 | 8.56575 | 357 ft | 4 kts | 119° |
| 2026-05-05 08:56 | 50.04678 | 8.56544 | 359 ft | 4 kts | 153° |
| 2026-05-05 08:56 | 50.04690 | 8.56539 | 366 ft | 0 kts | 205° |
| 2026-05-05 08:56 | 50.04674 | 8.56528 | 373 ft | 4 kts | 205° |
| 2026-05-05 08:56 | 50.04650 | 8.56510 | 351 ft | 4 kts | 205° |
| 2026-05-05 08:57 | 50.04625 | 8.56492 | 355 ft | 4 kts | 205° |
| 2026-05-05 08:57 | 50.04600 | 8.56475 | 351 ft | 4 kts | 205° |
| 2026-05-05 08:57 | 50.04581 | 8.56460 | 351 ft | 0 kts | 205° |
| 2026-05-05 09:00 | 50.04580 | 8.56460 | 351 ft | 1 kts | 205° |
| 2026-05-05 09:00 | 50.04569 | 8.56452 | 351 ft | 3 kts | 205° |
| 2026-05-05 09:00 | 50.04547 | 8.56435 | 351 ft | 6 kts | 211° |
| 2026-05-05 09:00 | 50.04513 | 8.56367 | 356 ft | 8 kts | 246° |
| 2026-05-05 09:01 | 50.04492 | 8.56283 | 350 ft | 8 kts | 249° |
| 2026-05-05 09:01 | 50.04473 | 8.56202 | 350 ft | 8 kts | 250° |
| 2026-05-05 09:01 | 50.04454 | 8.56122 | 352 ft | 8 kts | 250° |
| 2026-05-05 09:01 | 50.04428 | 8.56051 | 357 ft | 7 kts | 221° |
| 2026-05-05 09:02 | 50.04382 | 8.56038 | 358 ft | 7 kts | 169° |
| 2026-05-05 09:02 | 50.04339 | 8.56058 | 356 ft | 6 kts | 159° |
| 2026-05-05 09:02 | 50.04299 | 8.56069 | 352 ft | 6 kts | 183° |
| 2026-05-05 09:02 | 50.04262 | 8.56056 | 352 ft | 5 kts | 199° |
| 2026-05-05 09:03 | 50.04219 | 8.56044 | 349 ft | 9 kts | 175° |
| 2026-05-05 09:03 | 50.04142 | 8.56084 | 357 ft | 13 kts | 160° |
| 2026-05-05 09:03 | 50.04074 | 8.56042 | 352 ft | 11 kts | 241° |
| 2026-05-05 09:03 | 50.04045 | 8.55931 | 349 ft | 11 kts | 250° |
| 2026-05-05 09:04 | 50.04019 | 8.55823 | 356 ft | 11 kts | 249° |
| 2026-05-05 09:04 | 50.03992 | 8.55710 | 352 ft | 14 kts | 250° |
| 2026-05-05 09:04 | 50.03953 | 8.55545 | 350 ft | 17 kts | 250° |
| 2026-05-05 09:04 | 50.03913 | 8.55376 | 350 ft | 17 kts | 250° |
| 2026-05-05 09:05 | 50.03873 | 8.55209 | 355 ft | 16 kts | 249° |
| 2026-05-05 09:05 | 50.03833 | 8.55043 | 356 ft | 16 kts | 249° |
| 2026-05-05 09:05 | 50.03794 | 8.54881 | 357 ft | 16 kts | 250° |
| 2026-05-05 09:05 | 50.03755 | 8.54718 | 352 ft | 18 kts | 250° |
| 2026-05-05 09:06 | 50.03712 | 8.54534 | 350 ft | 18 kts | 249° |
| 2026-05-05 09:06 | 50.03667 | 8.54350 | 354 ft | 18 kts | 249° |
| 2026-05-05 09:06 | 50.03623 | 8.54167 | 349 ft | 18 kts | 249° |
| 2026-05-05 09:06 | 50.03579 | 8.53983 | 352 ft | 18 kts | 249° |
| 2026-05-05 09:07 | 50.03535 | 8.53801 | 353 ft | 18 kts | 250° |
| 2026-05-05 09:07 | 50.03492 | 8.53619 | 355 ft | 18 kts | 250° |
| 2026-05-05 09:07 | 50.03437 | 8.53385 | 350 ft | 27 kts | 250° |
| 2026-05-05 09:07 | 50.03370 | 8.53110 | 353 ft | 24 kts | 249° |
| 2026-05-05 09:08 | 50.03317 | 8.52892 | 356 ft | 21 kts | 249° |
| 2026-05-05 09:08 | 50.03277 | 8.52725 | 351 ft | 15 kts | 249° |
| 2026-05-05 09:08 | 50.03214 | 8.52606 | 350 ft | 11 kts | 215° |
| 2026-05-05 09:08 | 50.03148 | 8.52596 | 352 ft | 15 kts | 180° |
| 2026-05-05 09:09 | 50.02818 | 8.52598 | 349 ft | 85 kts | 180° |
| 2026-05-05 09:09 | 50.01936 | 8.52607 | 354 ft | 166 kts | 179° |
| 2026-05-05 09:09 | 50.00724 | 8.52632 | 1081 ft | 171 kts | 179° |
| 2026-05-05 09:09 | 49.99538 | 8.52654 | 2112 ft | 173 kts | 179° |
| 2026-05-05 09:10 | 49.98263 | 8.52686 | 2683 ft | 195 kts | 178° |
| 2026-05-05 09:10 | 49.96836 | 8.52806 | 3193 ft | 214 kts | 176° |
| 2026-05-05 09:10 | 49.95309 | 8.52948 | 3700 ft | 228 kts | 176° |
| 2026-05-05 09:10 | 49.93715 | 8.53083 | 3935 ft | 229 kts | 177° |
| 2026-05-05 09:11 | 49.92113 | 8.53205 | 4174 ft | 232 kts | 177° |
| 2026-05-05 09:11 | 49.90493 | 8.53321 | 5057 ft | 232 kts | 178° |
| 2026-05-05 09:11 | 49.88893 | 8.53432 | 6148 ft | 229 kts | 178° |
| 2026-05-05 09:11 | 49.87301 | 8.53541 | 7048 ft | 229 kts | 178° |
| 2026-05-05 09:12 | 49.85687 | 8.53649 | 7845 ft | 234 kts | 178° |
| 2026-05-05 09:12 | 49.84064 | 8.53758 | 8618 ft | 239 kts | 178° |
| 2026-05-05 09:12 | 49.82383 | 8.53869 | 9415 ft | 243 kts | 178° |
| 2026-05-05 09:12 | 49.80677 | 8.53982 | 10168 ft | 247 kts | 178° |
| 2026-05-05 09:13 | 49.78949 | 8.54092 | 10926 ft | 249 kts | 180° |
| 2026-05-05 09:13 | 49.77204 | 8.54020 | 11620 ft | 256 kts | 185° |
| 2026-05-05 09:13 | 49.75353 | 8.53800 | 11996 ft | 277 kts | 186° |
| 2026-05-05 09:13 | 49.73386 | 8.53533 | 12351 ft | 297 kts | 186° |
| 2026-05-05 09:14 | 49.71252 | 8.53240 | 12736 ft | 316 kts | 186° |
| 2026-05-05 09:14 | 49.69024 | 8.52940 | 13352 ft | 325 kts | 186° |
| 2026-05-05 09:14 | 49.66746 | 8.52637 | 14080 ft | 329 kts | 186° |
| 2026-05-05 09:14 | 49.64470 | 8.52336 | 14814 ft | 332 kts | 186° |
| 2026-05-05 09:15 | 49.62134 | 8.52027 | 15576 ft | 335 kts | 186° |
| 2026-05-05 09:15 | 49.59799 | 8.51719 | 16307 ft | 338 kts | 185° |
| 2026-05-05 09:15 | 49.57473 | 8.51413 | 16754 ft | 340 kts | 185° |
| 2026-05-05 09:15 | 49.55131 | 8.51105 | 16875 ft | 332 kts | 185° |
| 2026-05-05 09:16 | 49.52857 | 8.50807 | 16880 ft | 325 kts | 185° |
| 2026-05-05 09:16 | 49.50609 | 8.50513 | 16886 ft | 323 kts | 185° |
| 2026-05-05 09:16 | 49.48362 | 8.50218 | 16880 ft | 323 kts | 185° |
| 2026-05-05 09:16 | 49.46146 | 8.49927 | 16884 ft | 323 kts | 185° |
| 2026-05-05 09:17 | 49.43904 | 8.49634 | 16885 ft | 323 kts | 185° |
| 2026-05-05 09:17 | 49.41664 | 8.49341 | 16884 ft | 323 kts | 185° |
| 2026-05-05 09:17 | 49.39420 | 8.49048 | 16884 ft | 323 kts | 185° |
| 2026-05-05 09:17 | 49.37176 | 8.48755 | 16879 ft | 323 kts | 185° |
| 2026-05-05 09:18 | 49.34936 | 8.48462 | 16881 ft | 323 kts | 186° |
| 2026-05-05 09:18 | 49.32725 | 8.48174 | 16881 ft | 323 kts | 186° |
| 2026-05-05 09:18 | 49.30479 | 8.48024 | 16877 ft | 323 kts | 178° |
| 2026-05-05 09:18 | 49.28266 | 8.48634 | 16877 ft | 325 kts | 163° |
| 2026-05-05 09:19 | 49.26168 | 8.50001 | 16874 ft | 327 kts | 156° |
| 2026-05-05 09:19 | 49.24161 | 8.51677 | 16874 ft | 328 kts | 152° |
| 2026-05-05 09:19 | 49.22235 | 8.53498 | 16877 ft | 329 kts | 150° |
| 2026-05-05 09:19 | 49.20290 | 8.55438 | 16870 ft | 329 kts | 149° |
| 2026-05-05 09:20 | 49.18401 | 8.57344 | 16869 ft | 329 kts | 149° |
| 2026-05-05 09:20 | 49.16431 | 8.59108 | 16866 ft | 327 kts | 158° |
| 2026-05-05 09:20 | 49.14271 | 8.60103 | 16866 ft | 323 kts | 174° |
| 2026-05-05 09:20 | 49.12026 | 8.60331 | 16869 ft | 322 kts | 180° |
| 2026-05-05 09:21 | 49.09777 | 8.60219 | 16866 ft | 323 kts | 185° |
| 2026-05-05 09:21 | 49.07567 | 8.59921 | 16865 ft | 322 kts | 187° |
| 2026-05-05 09:21 | 49.05332 | 8.59533 | 16867 ft | 323 kts | 187° |
| 2026-05-05 09:21 | 49.03106 | 8.59125 | 16865 ft | 323 kts | 187° |
| 2026-05-05 09:22 | 49.00871 | 8.58730 | 16864 ft | 323 kts | 186° |
| 2026-05-05 09:22 | 48.98639 | 8.58664 | 16709 ft | 318 kts | 179° |
| 2026-05-05 09:22 | 48.96439 | 8.58827 | 16463 ft | 313 kts | 178° |
| 2026-05-05 09:22 | 48.94276 | 8.59049 | 16197 ft | 311 kts | 177° |
| 2026-05-05 09:23 | 48.92121 | 8.59289 | 15946 ft | 310 kts | 176° |
| 2026-05-05 09:23 | 48.89998 | 8.59535 | 15699 ft | 309 kts | 176° |
| 2026-05-05 09:23 | 48.87880 | 8.60058 | 15445 ft | 309 kts | 165° |
| 2026-05-05 09:23 | 48.85937 | 8.61457 | 15196 ft | 311 kts | 146° |
| 2026-05-05 09:24 | 48.84408 | 8.63785 | 14951 ft | 315 kts | 127° |
| 2026-05-05 09:24 | 48.83491 | 8.66810 | 14706 ft | 319 kts | 107° |
| 2026-05-05 09:24 | 48.83316 | 8.70185 | 14468 ft | 324 kts | 88° |
| 2026-05-05 09:24 | 48.83656 | 8.73581 | 14215 ft | 326 kts | 82° |
| 2026-05-05 09:25 | 48.84107 | 8.76972 | 13698 ft | 329 kts | 81° |
| 2026-05-05 09:25 | 48.84566 | 8.80362 | 13005 ft | 333 kts | 81° |
| 2026-05-05 09:25 | 48.85026 | 8.83833 | 12330 ft | 336 kts | 81° |
| 2026-05-05 09:25 | 48.85478 | 8.87311 | 11656 ft | 334 kts | 81° |
| 2026-05-05 09:26 | 48.85919 | 8.90742 | 11010 ft | 327 kts | 81° |
| 2026-05-05 09:26 | 48.86348 | 8.94104 | 10382 ft | 320 kts | 81° |
| 2026-05-05 09:26 | 48.86762 | 8.97375 | 9981 ft | 308 kts | 81° |
| 2026-05-05 09:26 | 48.87151 | 9.00465 | 9784 ft | 289 kts | 81° |
| 2026-05-05 09:27 | 48.87458 | 9.03348 | 9609 ft | 271 kts | 88° |
| 2026-05-05 09:27 | 48.87363 | 9.06122 | 9327 ft | 257 kts | 104° |
| 2026-05-05 09:27 | 48.86738 | 9.08582 | 8862 ft | 246 kts | 123° |
| 2026-05-05 09:27 | 48.85589 | 9.10467 | 8271 ft | 243 kts | 146° |
| 2026-05-05 09:28 | 48.84056 | 9.11486 | 7668 ft | 241 kts | 169° |
| 2026-05-05 09:28 | 48.82393 | 9.11426 | 7091 ft | 240 kts | 194° |
| 2026-05-05 09:28 | 48.80847 | 9.10592 | 6558 ft | 239 kts | 202° |
| 2026-05-05 09:28 | 48.79332 | 9.09580 | 6026 ft | 236 kts | 203° |
| 2026-05-05 09:29 | 48.77830 | 9.08563 | 5434 ft | 236 kts | 203° |
| 2026-05-05 09:29 | 48.76325 | 9.07560 | 4992 ft | 235 kts | 203° |
| 2026-05-05 09:29 | 48.74815 | 9.06562 | 4871 ft | 238 kts | 202° |
| 2026-05-05 09:29 | 48.73329 | 9.05591 | 4843 ft | 223 kts | 202° |
| 2026-05-05 09:30 | 48.71961 | 9.04704 | 4838 ft | 204 kts | 202° |
| 2026-05-05 09:30 | 48.70739 | 9.03916 | 4916 ft | 186 kts | 202° |
| 2026-05-05 09:30 | 48.69559 | 9.03160 | 4979 ft | 182 kts | 202° |
| 2026-05-05 09:30 | 48.68421 | 9.02433 | 4979 ft | 170 kts | 202° |
| 2026-05-05 09:31 | 48.67374 | 9.01763 | 5011 ft | 159 kts | 202° |
| 2026-05-05 09:31 | 48.66352 | 9.01112 | 4992 ft | 160 kts | 202° |
| 2026-05-05 09:31 | 48.65350 | 9.00370 | 4991 ft | 161 kts | 214° |
| 2026-05-05 09:31 | 48.64497 | 8.99273 | 4992 ft | 161 kts | 223° |
| 2026-05-05 09:32 | 48.63727 | 8.98067 | 5001 ft | 162 kts | 226° |
| 2026-05-05 09:32 | 48.62972 | 8.96797 | 4968 ft | 163 kts | 227° |
| 2026-05-05 09:32 | 48.62229 | 8.95507 | 4845 ft | 162 kts | 228° |
| 2026-05-05 09:32 | 48.61467 | 8.94258 | 4721 ft | 161 kts | 223° |
| 2026-05-05 09:33 | 48.60845 | 8.92854 | 4617 ft | 163 kts | 246° |
| 2026-05-05 09:33 | 48.60468 | 8.91241 | 4517 ft | 163 kts | 252° |
| 2026-05-05 09:33 | 48.60145 | 8.89597 | 4410 ft | 163 kts | 253° |
| 2026-05-05 09:33 | 48.59834 | 8.87948 | 4323 ft | 163 kts | 255° |
| 2026-05-05 09:34 | 48.59894 | 8.86281 | 4198 ft | 162 kts | 296° |
| 2026-05-05 09:34 | 48.60676 | 8.85126 | 4110 ft | 161 kts | 331° |
| 2026-05-05 09:34 | 48.61703 | 8.84404 | 4022 ft | 161 kts | 335° |
| 2026-05-05 09:34 | 48.62707 | 8.83691 | 4003 ft | 161 kts | 335° |
| 2026-05-05 09:35 | 48.63727 | 8.82977 | 3995 ft | 162 kts | 344° |
| 2026-05-05 09:35 | 48.65611 | 8.84206 | 3990 ft | 159 kts | 67° |
| 2026-05-05 09:35 | 48.65752 | 8.85844 | 4003 ft | 158 kts | 92° |
| 2026-05-05 09:36 | 48.65661 | 8.87508 | 3999 ft | 159 kts | 96° |
| 2026-05-05 09:36 | 48.65535 | 8.89178 | 3996 ft | 159 kts | 97° |
| 2026-05-05 09:36 | 48.65411 | 8.90847 | 3998 ft | 160 kts | 96° |
| 2026-05-05 09:36 | 48.65291 | 8.92520 | 3996 ft | 160 kts | 96° |
| 2026-05-05 09:37 | 48.65178 | 8.94171 | 3995 ft | 159 kts | 96° |
| 2026-05-05 09:37 | 48.65065 | 8.95842 | 3995 ft | 159 kts | 96° |
| 2026-05-05 09:37 | 48.64954 | 8.97512 | 3994 ft | 159 kts | 96° |
| 2026-05-05 09:37 | 48.64854 | 8.99182 | 3992 ft | 159 kts | 92° |
| 2026-05-05 09:38 | 48.64958 | 9.00850 | 3950 ft | 160 kts | 78° |
| 2026-05-05 09:38 | 48.65239 | 9.02479 | 3751 ft | 160 kts | 74° |
| 2026-05-05 09:38 | 48.65549 | 9.04081 | 3528 ft | 158 kts | 74° |
| 2026-05-05 09:38 | 48.65852 | 9.05683 | 3318 ft | 159 kts | 74° |
| 2026-05-05 09:39 | 48.66146 | 9.07270 | 3122 ft | 158 kts | 74° |
| 2026-05-05 09:39 | 48.66434 | 9.08872 | 2912 ft | 153 kts | 74° |
| 2026-05-05 09:39 | 48.66720 | 9.10368 | 2658 ft | 143 kts | 72° |
| 2026-05-05 09:39 | 48.67014 | 9.11761 | 2505 ft | 138 kts | 72° |
| 2026-05-05 09:40 | 48.67190 | 9.12699 | 2436 ft | 142 kts | 73° |
| 2026-05-05 09:40 | 48.67455 | 9.14131 | 2147 ft | 140 kts | 73° |
| 2026-05-05 09:40 | 48.67809 | 9.15998 | 1891 ft | 139 kts | 72° |
| 2026-05-05 09:40 | 48.67992 | 9.16950 | 1745 ft | 139 kts | 73° |
| 2026-05-05 09:41 | 48.68249 | 9.18357 | 1562 ft | 139 kts | 71° |
| 2026-05-05 09:41 | 48.68520 | 9.19730 | 1383 ft | 137 kts | 70° |
| 2026-05-05 09:41 | 48.68779 | 9.21084 | 1280 ft | 124 kts | 74° |
| 2026-05-05 09:41 | 48.68953 | 9.22012 | 1261 ft | 65 kts | 74° |
| 2026-05-05 09:42 | 48.69052 | 9.22522 | 1252 ft | 16 kts | 56° |
| 2026-05-05 09:42 | 48.69147 | 9.22527 | 1251 ft | 13 kts | 344° |
| 2026-05-05 09:42 | 48.69171 | 9.22516 | 1251 ft | 0 kts | 343° |
| 2026-05-05 09:44 | 48.69184 | 9.22509 | 1249 ft | 4 kts | 337° |
| 2026-05-05 09:44 | 48.69205 | 9.22419 | 1253 ft | 12 kts | 257° |
| 2026-05-05 09:44 | 48.69186 | 9.22312 | 1256 ft | 9 kts | 255° |
| 2026-05-05 09:45 | 48.69171 | 9.22234 | 1253 ft | 6 kts | 255° |
| 2026-05-05 09:45 | 48.69158 | 9.22163 | 1258 ft | 11 kts | 253° |
| 2026-05-05 09:45 | 48.69135 | 9.22047 | 1257 ft | 10 kts | 255° |
| 2026-05-05 09:45 | 48.69116 | 9.21941 | 1265 ft | 13 kts | 254° |
| 2026-05-05 09:46 | 48.69085 | 9.21777 | 1263 ft | 19 kts | 254° |
| 2026-05-05 09:46 | 48.69048 | 9.21581 | 1272 ft | 18 kts | 254° |
| 2026-05-05 09:46 | 48.69015 | 9.21408 | 1271 ft | 16 kts | 253° |
| 2026-05-05 09:46 | 48.68986 | 9.21262 | 1277 ft | 13 kts | 253° |
| 2026-05-05 09:47 | 48.68964 | 9.21144 | 1274 ft | 10 kts | 253° |
| 2026-05-05 09:47 | 48.68946 | 9.21053 | 1278 ft | 8 kts | 253° |
| 2026-05-05 09:47 | 48.68934 | 9.20987 | 1278 ft | 7 kts | 255° |
| 2026-05-05 09:47 | 48.68908 | 9.20852 | 1281 ft | 17 kts | 253° |
| 2026-05-05 09:48 | 48.68920 | 9.20697 | 1284 ft | 14 kts | 308° |
| 2026-05-05 09:48 | 48.68984 | 9.20594 | 1286 ft | 13 kts | 314° |
| 2026-05-05 09:48 | 48.69044 | 9.20501 | 1287 ft | 12 kts | 314° |
| 2026-05-05 09:48 | 48.69058 | 9.20410 | 1288 ft | 9 kts | 257° |
| 2026-05-05 09:49 | 48.69042 | 9.20323 | 1288 ft | 9 kts | 255° |
| 2026-05-05 09:49 | 48.69026 | 9.20237 | 1288 ft | 8 kts | 254° |
| 2026-05-05 09:49 | 48.69014 | 9.20169 | 1288 ft | 2 kts | 253° |
| 2026-05-05 09:49 | 48.69009 | 9.20145 | 1288 ft | 2 kts | 253° |
| 2026-05-05 09:50 | 48.69005 | 9.20124 | 1288 ft | 2 kts | 253° |
| 2026-05-05 09:50 | 48.69001 | 9.20103 | 1288 ft | 2 kts | 253° |
| 2026-05-05 09:50 | 48.68997 | 9.20083 | 1288 ft | 2 kts | 253° |
| 2026-05-05 09:50 | 48.68993 | 9.20066 | 1288 ft | 2 kts | 245° |
| 2026-05-05 09:51 | 48.68987 | 9.20047 | 1288 ft | 3 kts | 245° |
| 2026-05-05 09:51 | 48.68984 | 9.20021 | 1288 ft | 1 kts | 279° |
| 2026-05-05 09:51 | 48.68990 | 9.20011 | 1288 ft | 2 kts | 316° |
| 2026-05-05 09:51 | 48.69015 | 9.19995 | 1288 ft | 6 kts | 341° |
| 2026-05-05 09:52 | 48.69052 | 9.19978 | 1288 ft | 3 kts | 343° |
| 2026-05-05 09:52 | 48.69059 | 9.19975 | 1288 ft | 0 kts | 343° |